createdAt,value
2018-12-15T00:02:11.025Z,99676.57
2018-12-15T00:04:39.497Z,99677.57
2018-12-15T00:07:08.103Z,99683.36
2018-12-15T00:09:36.438Z,99680.33
2018-12-15T00:12:04.873Z,99683.48
2018-12-15T00:14:33.257Z,99682.70
2018-12-15T00:17:05.688Z,99690.11
2018-12-15T00:19:31.912Z,99685.80
2018-12-15T00:22:00.274Z,99687.08
2018-12-15T00:24:28.792Z,99686.17
2018-12-15T00:26:57.105Z,99687.77
2018-12-15T00:29:25.378Z,99686.94
2018-12-15T00:31:53.697Z,99683.05
2018-12-15T00:34:22.065Z,99682.83
2018-12-15T00:36:50.433Z,99677.75
2018-12-15T00:39:18.735Z,99680.52
2018-12-15T00:41:47.094Z,99684.02
2018-12-15T00:44:15.589Z,99689.84
2018-12-15T00:46:43.936Z,99690.77
2018-12-15T00:49:12.241Z,99692.36
2018-12-15T00:51:40.541Z,99691.91
2018-12-15T00:54:08.935Z,99683.57
2018-12-15T00:56:37.349Z,99683.85
2018-12-15T00:59:05.759Z,99687.05
2018-12-15T01:01:34.365Z,99681.11
2018-12-15T01:04:02.696Z,99692.30
2018-12-15T01:06:31.057Z,99688.31
2018-12-15T01:08:59.373Z,99690.88
2018-12-15T01:11:27.713Z,99694.55
2018-12-15T01:13:56.082Z,99694.98
2018-12-15T01:16:24.428Z,99699.73
2018-12-15T01:18:52.716Z,99700.75
2018-12-15T01:21:21.136Z,99699.67
2018-12-15T01:23:49.476Z,99709.13
2018-12-15T01:26:17.878Z,99708.09
2018-12-15T01:28:46.177Z,99705.61
2018-12-15T01:31:14.545Z,99709.16
2018-12-15T01:33:42.871Z,99712.69
2018-12-15T01:36:11.221Z,99715.31
2018-12-15T01:38:39.641Z,99713.48
2018-12-15T01:41:08.064Z,99717.55
2018-12-15T01:43:36.422Z,99712.34
2018-12-15T01:46:04.890Z,99720.57
2018-12-15T01:48:33.261Z,99712.34
2018-12-15T01:51:01.694Z,99719.55
2018-12-15T01:53:29.980Z,99718.11
2018-12-15T01:55:58.262Z,99723.42
2018-12-15T01:58:26.605Z,99724.05
2018-12-15T02:00:54.921Z,99721.26
2018-12-15T02:03:23.276Z,99729.25
2018-12-15T02:05:51.611Z,99731.77
2018-12-15T02:08:26.671Z,99733.81
2018-12-15T02:10:54.945Z,99737.94
2018-12-15T02:13:23.257Z,99735.63
2018-12-15T02:15:51.594Z,99737.64
2018-12-15T02:18:19.917Z,99737.30
2018-12-15T02:20:48.436Z,99737.64
2018-12-15T02:23:16.830Z,99732.48
2018-12-15T02:25:45.228Z,99733.85
2018-12-15T02:28:13.505Z,99734.50
2018-12-15T02:30:41.840Z,99739.70
2018-12-15T02:33:10.174Z,99741.41
2018-12-15T02:35:38.485Z,99741.64
2018-12-15T02:38:06.925Z,99743.64
2018-12-15T02:40:35.291Z,99746.84
2018-12-15T02:43:03.652Z,99743.56
2018-12-15T02:45:31.979Z,99738.16
2018-12-15T02:48:00.382Z,99738.84
2018-12-15T02:50:28.795Z,99744.73
2018-12-15T02:52:57.113Z,99743.23
2018-12-15T02:55:25.624Z,99741.47
2018-12-15T02:57:54.015Z,99738.05
2018-12-15T03:00:22.373Z,99734.05
2018-12-15T03:02:50.675Z,99732.28
2018-12-15T03:05:19.005Z,99736.05
2018-12-15T03:07:47.285Z,99734.71
2018-12-15T03:10:15.680Z,99738.39
2018-12-15T03:12:43.980Z,99734.67
2018-12-15T03:15:12.337Z,99741.47
2018-12-15T03:17:40.735Z,99736.56
2018-12-15T03:20:09.079Z,99737.07
2018-12-15T03:22:37.379Z,99738.73
2018-12-15T03:25:06.373Z,99740.33
2018-12-15T03:27:34.639Z,99734.38
2018-12-15T03:30:02.999Z,99731.25
2018-12-15T03:32:31.478Z,99720.20
2018-12-15T03:34:59.931Z,99731.94
2018-12-15T03:37:28.233Z,99727.70
2018-12-15T03:39:56.602Z,99732.33
2018-12-15T03:42:24.885Z,99727.48
2018-12-15T03:44:53.282Z,99727.54
2018-12-15T03:47:21.578Z,99723.31
2018-12-15T03:49:49.893Z,99735.13
2018-12-15T03:52:18.232Z,99726.73
2018-12-15T03:54:46.568Z,99732.22
2018-12-15T03:57:14.954Z,99735.81
2018-12-15T03:59:43.334Z,99732.45
2018-12-15T04:02:11.950Z,99736.45
2018-12-15T04:04:40.379Z,99734.27
2018-12-15T04:07:08.687Z,99731.88
2018-12-15T04:09:37.045Z,99734.73
2018-12-15T04:12:05.321Z,99737.02
2018-12-15T04:14:33.709Z,99743.02
2018-12-15T04:17:01.995Z,99742.84
2018-12-15T04:19:30.316Z,99744.21
2018-12-15T04:22:10.014Z,99740.95
2018-12-15T04:24:38.361Z,99747.01
2018-12-15T04:27:06.774Z,99747.66
2018-12-15T04:29:35.121Z,99745.65
2018-12-15T04:32:03.606Z,99750.78
2018-12-15T04:34:31.879Z,99749.58
2018-12-15T04:37:00.388Z,99750.28
2018-12-15T04:39:28.717Z,99755.58
2018-12-15T04:41:57.012Z,99759.06
2018-12-15T04:44:25.290Z,99759.91
2018-12-15T04:46:53.909Z,99761.51
2018-12-15T04:49:23.145Z,99765.84
2018-12-15T04:51:51.535Z,99763.39
2018-12-15T04:54:19.807Z,99765.84
2018-12-15T04:56:48.096Z,99764.99
2018-12-15T04:59:16.383Z,99766.02
2018-12-15T05:01:44.682Z,99773.11
2018-12-15T05:04:12.964Z,99766.88
2018-12-15T05:06:41.376Z,99766.66
2018-12-15T05:09:09.647Z,99770.42
2018-12-15T05:11:37.955Z,99760.83
2018-12-15T05:14:06.254Z,99758.48
2018-12-15T05:16:34.565Z,99767.80
2018-12-15T05:19:02.857Z,99759.58
2018-12-15T05:21:31.167Z,99759.86
2018-12-15T05:23:59.454Z,99760.55
2018-12-15T05:26:27.805Z,99763.98
2018-12-15T05:28:56.146Z,99757.41
2018-12-15T05:31:24.500Z,99755.85
2018-12-15T05:33:52.816Z,99759.58
2018-12-15T05:36:21.123Z,99758.67
2018-12-15T05:38:49.421Z,99762.31
2018-12-15T05:41:17.705Z,99764.30
2018-12-15T05:43:46.021Z,99761.33
2018-12-15T05:46:14.479Z,99756.48
2018-12-15T05:48:42.830Z,99759.92
2018-12-15T05:51:11.153Z,99762.82
2018-12-15T05:53:39.580Z,99762.59
2018-12-15T05:56:07.934Z,99770.53
2018-12-15T05:58:36.433Z,99767.23
2018-12-15T06:01:04.710Z,99770.30
2018-12-15T06:03:33.013Z,99768.38
2018-12-15T06:06:01.293Z,99772.31
2018-12-15T06:08:29.625Z,99768.93
2018-12-15T06:10:57.910Z,99769.58
2018-12-15T06:13:26.216Z,99768.59
2018-12-15T06:15:54.496Z,99765.16
2018-12-15T06:18:22.812Z,99768.27
2018-12-15T06:20:51.166Z,99761.97
2018-12-15T06:23:19.477Z,99770.02
2018-12-15T06:25:54.229Z,99765.80
2018-12-15T06:28:22.521Z,99766.54
2018-12-15T06:30:50.825Z,99763.50
2018-12-15T06:33:19.110Z,99768.08
2018-12-15T06:35:47.396Z,99769.50
2018-12-15T06:38:15.693Z,99766.36
2018-12-15T06:40:44.045Z,99761.35
2018-12-15T06:43:12.412Z,99759.91
2018-12-15T06:45:40.687Z,99767.89
2018-12-15T06:48:09.076Z,99758.33
2018-12-15T06:50:37.409Z,99764.54
2018-12-15T06:53:05.714Z,99761.16
2018-12-15T06:55:35.037Z,99763.52
2018-12-15T06:58:03.402Z,99767.39
2018-12-15T07:00:31.685Z,99767.80
2018-12-15T07:02:59.978Z,99766.88
2018-12-15T07:05:28.293Z,99764.94
2018-12-15T07:07:56.801Z,99764.37
2018-12-15T07:10:25.087Z,99768.08
2018-12-15T07:12:53.437Z,99768.08
2018-12-15T07:15:21.816Z,99767.86
2018-12-15T07:17:50.119Z,99767.97
2018-12-15T07:20:18.394Z,99768.19
2018-12-15T07:22:46.713Z,99768.38
2018-12-15T07:25:14.989Z,99772.31
2018-12-15T07:27:43.280Z,99770.30
2018-12-15T07:30:11.655Z,99777.05
2018-12-15T07:32:39.970Z,99775.16
2018-12-15T07:35:08.467Z,99780.80
2018-12-15T07:37:36.778Z,99777.72
2018-12-15T07:40:05.907Z,99785.60
2018-12-15T07:42:34.258Z,99788.06
2018-12-15T07:45:02.670Z,99780.06
2018-12-15T07:47:31.087Z,99781.42
2018-12-15T07:49:59.476Z,99779.95
2018-12-15T07:52:27.788Z,99773.84
2018-12-15T07:54:56.157Z,99770.48
2018-12-15T07:57:25.850Z,99772.77
2018-12-15T07:59:55.050Z,99768.38
2018-12-15T08:02:23.332Z,99776.12
2018-12-15T08:04:51.670Z,99771.34
2018-12-15T08:07:20.268Z,99769.73
2018-12-15T08:09:50.373Z,99776.20
2018-12-15T08:12:24.201Z,99773.62
2018-12-15T08:14:52.805Z,99772.14
2018-12-15T08:17:21.357Z,99773.45
2018-12-15T08:19:50.113Z,99774.98
2018-12-15T08:22:18.387Z,99783.11
2018-12-15T08:24:46.837Z,99777.05
2018-12-15T08:27:15.332Z,99775.28
2018-12-15T08:29:43.657Z,99784.88
2018-12-15T08:32:11.960Z,99778.07
2018-12-15T08:34:40.408Z,99777.61
2018-12-15T08:37:08.785Z,99784.98
2018-12-15T08:39:37.097Z,99779.43
2018-12-15T08:42:05.409Z,99782.59
2018-12-15T08:44:33.714Z,99785.14
2018-12-15T08:47:02.104Z,99790.39
2018-12-15T08:49:30.409Z,99783.77
2018-12-15T08:51:58.766Z,99790.58
2018-12-15T08:54:27.294Z,99793.94
2018-12-15T08:56:55.832Z,99786.11
2018-12-15T08:59:24.922Z,99797.02
2018-12-15T09:01:53.489Z,99793.05
2018-12-15T09:04:22.152Z,99793.38
2018-12-15T09:06:50.699Z,99783.50
2018-12-15T09:09:19.084Z,99791.27
2018-12-15T09:11:47.357Z,99791.20
2018-12-15T09:14:15.985Z,99793.83
2018-12-15T09:16:44.282Z,99792.35
2018-12-15T09:19:12.602Z,99791.03
2018-12-15T09:21:41.004Z,99792.64
2018-12-15T09:24:09.341Z,99789.13
2018-12-15T09:26:37.773Z,99798.58
2018-12-15T09:29:06.080Z,99794.50
2018-12-15T09:31:34.370Z,99791.48
2018-12-15T09:34:02.880Z,99793.05
2018-12-15T09:36:31.284Z,99799.72
2018-12-15T09:38:59.806Z,99801.03
2018-12-15T09:41:28.242Z,99796.34
2018-12-15T09:43:56.795Z,99799.48
2018-12-15T09:46:25.326Z,99796.13
2018-12-15T09:48:53.825Z,99796.11
2018-12-15T09:51:22.161Z,99801.48
2018-12-15T09:53:50.632Z,99798.97
2018-12-15T09:56:19.181Z,99799.16
2018-12-15T09:58:48.729Z,99795.53
2018-12-15T10:01:18.777Z,99796.10
2018-12-15T10:03:47.426Z,99792.05
2018-12-15T10:06:15.741Z,99795.53
2018-12-15T10:08:44.060Z,99786.98
2018-12-15T10:11:12.388Z,99791.95
2018-12-15T10:13:40.792Z,99784.12
2018-12-15T10:16:09.593Z,99784.23
2018-12-15T10:18:38.064Z,99782.52
2018-12-15T10:21:06.404Z,99778.66
2018-12-15T10:23:34.916Z,99783.50
2018-12-15T10:26:03.300Z,99776.41
2018-12-15T10:28:31.642Z,99776.86
2018-12-15T10:31:05.304Z,99775.28
2018-12-15T10:33:33.654Z,99768.02
2018-12-15T10:36:01.931Z,99769.28
2018-12-15T10:38:30.294Z,99762.71
2018-12-15T10:40:58.650Z,99769.38
2018-12-15T10:43:26.977Z,99768.70
2018-12-15T10:45:55.419Z,99760.94
2018-12-15T10:48:23.746Z,99762.89
2018-12-15T10:50:52.018Z,99755.74
2018-12-15T10:53:20.328Z,99758.26
2018-12-15T10:55:48.625Z,99757.45
2018-12-15T10:58:16.992Z,99754.03
2018-12-15T11:00:50.745Z,99749.92
2018-12-15T11:03:19.047Z,99738.90
2018-12-15T11:05:47.595Z,99743.47
2018-12-15T11:08:15.887Z,99740.69
2018-12-15T11:10:44.313Z,99740.09
2018-12-15T11:13:12.669Z,99735.24
2018-12-15T11:15:41.098Z,99739.58
2018-12-15T11:18:09.438Z,99735.30
2018-12-15T11:20:37.756Z,99734.84
2018-12-15T11:23:06.078Z,99736.22
2018-12-15T11:25:34.396Z,99742.97
2018-12-15T11:28:02.728Z,99738.17
2018-12-15T11:30:31.041Z,99740.15
2018-12-15T11:32:59.378Z,99735.30
2018-12-15T11:35:27.799Z,99733.93
2018-12-15T11:37:56.090Z,99736.66
2018-12-15T11:40:24.622Z,99735.81
2018-12-15T11:42:52.892Z,99731.25
2018-12-15T11:45:21.310Z,99724.02
2018-12-15T11:47:49.641Z,99720.22
2018-12-15T11:50:17.968Z,99717.48
2018-12-15T11:52:46.288Z,99719.72
2018-12-15T11:55:14.839Z,99717.13
2018-12-15T11:57:43.185Z,99717.31
2018-12-15T12:00:12.254Z,99709.05
2018-12-15T12:02:40.949Z,99720.27
2018-12-15T12:05:09.562Z,99708.97
2018-12-15T12:07:37.872Z,99708.05
2018-12-15T12:10:07.005Z,99700.47
2018-12-15T12:12:35.402Z,99706.03
2018-12-15T12:15:06.523Z,99700.64
2018-12-15T12:17:34.894Z,99693.48
2018-12-15T12:20:04.350Z,99692.06
2018-12-15T12:22:32.686Z,99693.38
2018-12-15T12:25:01.235Z,99688.94
2018-12-15T12:27:29.605Z,99694.73
2018-12-15T12:29:58.062Z,99689.33
2018-12-15T12:32:26.375Z,99689.12
2018-12-15T12:34:54.723Z,99684.19
2018-12-15T12:37:23.032Z,99683.67
2018-12-15T12:39:51.402Z,99679.16
2018-12-15T12:42:19.708Z,99681.66
2018-12-15T12:44:48.213Z,99679.84
2018-12-15T12:47:16.545Z,99684.97
2018-12-15T12:49:44.996Z,99679.56
2018-12-15T12:52:13.296Z,99671.74
2018-12-15T12:54:41.627Z,99683.80
2018-12-15T12:57:09.932Z,99683.16
2018-12-15T12:59:38.270Z,99679.61
2018-12-15T13:02:06.613Z,99681.98
2018-12-15T13:04:35.041Z,99676.83
2018-12-15T13:07:03.366Z,99676.55
2018-12-15T13:09:31.721Z,99671.69
2018-12-15T13:12:00.126Z,99673.80
2018-12-15T13:14:28.505Z,99676.52
2018-12-15T13:16:56.868Z,99674.38
2018-12-15T13:19:25.295Z,99673.58
2018-12-15T13:21:53.678Z,99678.94
2018-12-15T13:24:22.074Z,99669.92
2018-12-15T13:26:50.459Z,99672.15
2018-12-15T13:29:18.897Z,99676.14
2018-12-15T13:31:47.229Z,99671.55
2018-12-15T13:34:15.784Z,99673.43
2018-12-15T13:36:44.908Z,99664.92
2018-12-15T13:39:13.331Z,99666.41
2018-12-15T13:41:41.633Z,99664.64
2018-12-15T13:44:09.937Z,99666.06
2018-12-15T13:46:38.353Z,99665.09
2018-12-15T13:49:06.704Z,99666.92
2018-12-15T13:51:35.084Z,99664.07
2018-12-15T13:54:03.530Z,99665.09
2018-12-15T13:56:31.849Z,99667.15
2018-12-15T13:59:00.312Z,99663.95
2018-12-15T14:01:28.828Z,99664.58
2018-12-15T14:03:57.151Z,99656.98
2018-12-15T14:06:25.532Z,99654.16
2018-12-15T14:08:53.912Z,99652.54
2018-12-15T14:11:22.258Z,99652.68
2018-12-15T14:13:50.577Z,99650.59
2018-12-15T14:16:18.974Z,99649.23
2018-12-15T14:18:47.260Z,99649.23
2018-12-15T14:21:16.059Z,99651.91
2018-12-15T14:23:44.398Z,99645.42
2018-12-15T14:26:12.813Z,99648.77
2018-12-15T14:28:41.141Z,99637.58
2018-12-15T14:31:09.564Z,99636.90
2018-12-15T14:33:37.981Z,99641.66
2018-12-15T14:36:12.184Z,99633.27
2018-12-15T14:38:43.642Z,99643.20
2018-12-15T14:41:19.065Z,99636.64
2018-12-15T14:43:50.329Z,99632.33
2018-12-15T14:46:21.310Z,99628.48
2018-12-15T14:48:51.876Z,99634.30
2018-12-15T14:51:26.255Z,99632.30
2018-12-15T14:53:58.769Z,99618.52
2018-12-15T14:56:31.413Z,99625.68
2018-12-15T14:59:03.014Z,99630.30
2018-12-15T15:01:34.504Z,99620.09
2018-12-15T15:04:05.201Z,99626.55
2018-12-15T15:06:38.085Z,99624.22
2018-12-15T15:09:09.939Z,99625.85
2018-12-15T15:11:41.320Z,99623.11
2018-12-15T15:14:14.164Z,99622.71
2018-12-15T15:16:45.842Z,99622.62
2018-12-15T15:19:17.227Z,99616.97
2018-12-15T15:21:49.171Z,99613.83
2018-12-15T15:24:21.353Z,99613.78
2018-12-15T15:26:51.065Z,99615.43
2018-12-15T15:29:21.891Z,99611.87
2018-12-15T15:31:52.864Z,99607.73
2018-12-15T15:34:24.411Z,99604.76
2018-12-15T15:36:54.293Z,99609.61
2018-12-15T15:39:25.636Z,99601.39
2018-12-15T15:41:58.188Z,99596.59
2018-12-15T15:44:29.326Z,99596.59
2018-12-15T15:47:03.020Z,99593.06
2018-12-15T15:52:12.784Z,99587.70
2018-12-15T15:54:45.226Z,99585.88
2018-12-15T15:57:18.230Z,99576.69
2018-12-15T15:59:52.538Z,99583.48
2018-12-15T16:02:22.889Z,99579.54
2018-12-15T16:04:53.876Z,99573.95
2018-12-15T16:07:27.611Z,99569.42
2018-12-15T16:09:58.703Z,99561.69
2018-12-15T16:12:30.165Z,99567.02
2018-12-15T16:15:01.824Z,99559.20
2018-12-15T16:17:51.016Z,99556.12
2018-12-15T16:20:22.106Z,99550.79
2018-12-15T16:22:53.266Z,99550.47
2018-12-15T16:25:25.699Z,99543.06
2018-12-15T16:27:59.332Z,99539.55
2018-12-15T16:34:24.126Z,99524.12
2018-12-15T16:36:58.892Z,99525.23
2018-12-15T16:39:31.477Z,99527.59
2018-12-15T16:42:04.514Z,99523.52
2018-12-15T16:44:40.013Z,99516.78
2018-12-15T16:47:12.371Z,99518.27
2018-12-15T16:49:43.434Z,99517.30
2018-12-15T16:52:18.235Z,99522.63
2018-12-15T16:54:50.009Z,99524.38
2018-12-15T16:57:21.547Z,99522.89
2018-12-15T16:59:57.010Z,99513.59
2018-12-15T17:02:32.939Z,99519.07
2018-12-15T17:05:05.537Z,99507.54
2018-12-15T17:07:37.355Z,99508.12
2018-12-15T17:10:13.512Z,99507.64
2018-12-15T17:12:45.528Z,99508.85
2018-12-15T17:15:17.888Z,99508.00
2018-12-15T17:17:50.477Z,99505.16
2018-12-15T17:20:23.281Z,99490.37
2018-12-15T17:22:53.867Z,99488.23
2018-12-15T17:25:27.899Z,99481.67
2018-12-15T17:27:59.422Z,99486.38
2018-12-15T17:30:31.040Z,99477.36
2018-12-15T17:33:03.405Z,99475.37
2018-12-15T17:35:31.888Z,99469.27
2018-12-15T17:38:00.301Z,99473.76
2018-12-15T17:40:28.771Z,99472.11
2018-12-15T17:42:57.168Z,99467.63
2018-12-15T17:45:25.490Z,99463.44
2018-12-15T17:47:54.003Z,99464.52
2018-12-15T17:50:22.370Z,99455.35
2018-12-15T17:52:52.217Z,99451.36
2018-12-15T17:55:20.732Z,99459.67
2018-12-15T17:57:49.257Z,99460.60
2018-12-15T18:00:17.876Z,99450.09
2018-12-15T18:02:46.336Z,99444.33
2018-12-15T18:05:14.739Z,99451.64
2018-12-15T18:07:44.099Z,99445.20
2018-12-15T18:10:13.565Z,99448.22
2018-12-15T18:12:42.552Z,99443.09
2018-12-15T18:15:10.986Z,99435.73
2018-12-15T18:17:39.269Z,99437.07
2018-12-15T18:20:09.464Z,99432.75
2018-12-15T18:22:37.773Z,99430.48
2018-12-15T18:25:06.764Z,99428.41
2018-12-15T18:27:35.063Z,99430.94
2018-12-15T18:30:03.804Z,99426.18
2018-12-15T18:32:32.112Z,99414.83
2018-12-15T18:35:00.448Z,99409.34
2018-12-15T18:37:28.753Z,99415.81
2018-12-15T18:39:57.100Z,99411.41
2018-12-15T18:42:25.414Z,99398.23
2018-12-15T18:44:53.766Z,99401.61
2018-12-15T18:47:22.059Z,99399.78
2018-12-15T18:49:50.427Z,99396.77
2018-12-15T18:52:18.910Z,99399.15
2018-12-15T18:54:47.228Z,99391.98
2018-12-15T18:57:15.651Z,99395.58
2018-12-15T18:59:44.028Z,99400.06
2018-12-15T19:02:12.501Z,99391.61
2018-12-15T19:04:40.938Z,99395.70
2018-12-15T19:07:09.452Z,99386.88
2018-12-15T19:09:38.022Z,99381.94
2018-12-15T19:12:06.556Z,99383.25
2018-12-15T19:14:34.894Z,99384.56
2018-12-15T19:17:03.228Z,99383.73
2018-12-15T19:19:31.620Z,99379.47
2018-12-15T19:21:59.933Z,99377.03
2018-12-15T19:24:30.628Z,99366.14
2018-12-15T19:26:58.950Z,99360.62
2018-12-15T19:29:27.328Z,99359.33
2018-12-15T19:31:55.681Z,99359.05
2018-12-15T19:34:24.121Z,99350.40
2018-12-15T19:36:52.572Z,99339.95
2018-12-15T19:39:21.814Z,99331.97
2018-12-15T19:41:50.144Z,99328.37
2018-12-15T19:44:18.586Z,99319.31
2018-12-15T19:46:46.914Z,99309.46
2018-12-15T19:49:15.198Z,99297.27
2018-12-15T19:51:43.617Z,99309.40
2018-12-15T19:54:12.411Z,99304.42
2018-12-15T19:56:41.024Z,99289.14
2018-12-15T19:59:13.614Z,99287.37
2018-12-15T20:01:43.129Z,99285.85
2018-12-15T20:04:15.079Z,99285.55
2018-12-15T20:06:44.025Z,99285.92
2018-12-15T20:09:12.995Z,99272.22
2018-12-15T20:11:41.848Z,99279.04
2018-12-15T20:14:10.667Z,99266.58
2018-12-15T20:16:39.465Z,99266.09
2018-12-15T20:19:08.177Z,99257.98
2018-12-15T20:21:37.261Z,99255.16
2018-12-15T20:24:06.179Z,99252.54
2018-12-15T20:26:36.168Z,99245.00
2018-12-15T20:29:05.499Z,99250.05
2018-12-15T20:31:35.456Z,99242.57
2018-12-15T20:34:04.667Z,99249.19
2018-12-15T20:36:33.063Z,99234.97
2018-12-15T20:39:01.485Z,99229.52
2018-12-15T20:41:31.891Z,99223.75
2018-12-15T20:44:00.476Z,99230.89
2018-12-15T20:46:28.821Z,99233.91
2018-12-15T20:48:57.150Z,99234.30
2018-12-15T20:51:25.547Z,99228.14
2018-12-15T20:53:54.006Z,99232.59
2018-12-15T20:56:22.520Z,99226.05
2018-12-15T20:58:51.060Z,99220.53
2018-12-15T21:01:19.410Z,99222.33
2018-12-15T21:03:47.822Z,99219.48
2018-12-15T21:06:16.169Z,99224.43
2018-12-15T21:08:44.580Z,99221.19
2018-12-15T21:11:13.054Z,99213.38
2018-12-15T21:13:42.543Z,99209.67
2018-12-15T21:16:11.006Z,99202.14
2018-12-15T21:18:39.416Z,99203.09
2018-12-15T21:21:07.724Z,99197.12
2018-12-15T21:23:36.063Z,99199.58
2018-12-15T21:26:04.606Z,99196.37
2018-12-15T21:28:33.066Z,99185.84
2018-12-15T21:31:01.461Z,99190.39
2018-12-15T21:33:30.129Z,99185.05
2018-12-15T21:35:58.565Z,99183.02
2018-12-15T21:38:27.037Z,99187.41
2018-12-15T21:40:55.385Z,99184.40
2018-12-15T21:43:23.705Z,99177.38
2018-12-15T21:45:52.124Z,99169.38
2018-12-15T21:48:20.689Z,99173.84
2018-12-15T21:50:49.030Z,99157.05
2018-12-15T21:53:17.374Z,99154.29
2018-12-15T21:55:45.699Z,99147.45
2018-12-15T21:58:14.075Z,99141.34
2018-12-15T22:00:42.591Z,99139.64
2018-12-15T22:03:11.274Z,99142.73
2018-12-15T22:05:39.641Z,99137.88
2018-12-15T22:08:09.913Z,99133.02
2018-12-15T22:10:38.520Z,99124.04
2018-12-15T22:13:07.838Z,99122.27
2018-12-15T22:15:36.609Z,99120.17
2018-12-15T22:18:05.072Z,99114.95
2018-12-15T22:20:33.778Z,99115.32
2018-12-15T22:23:02.229Z,99102.16
2018-12-15T22:25:30.691Z,99100.50
2018-12-15T22:27:59.050Z,99095.34
2018-12-15T22:30:27.355Z,99090.13
2018-12-15T22:32:55.678Z,99090.59
2018-12-15T22:35:24.049Z,99088.05
2018-12-15T22:37:52.373Z,99080.58
2018-12-15T22:40:20.853Z,99075.92
2018-12-15T22:42:49.148Z,99074.61
2018-12-15T22:45:17.622Z,99071.13
2018-12-15T22:47:45.959Z,99065.03
2018-12-15T22:50:14.297Z,99062.88
2018-12-15T22:52:42.642Z,99055.32
2018-12-15T22:55:11.114Z,99062.06
2018-12-15T22:57:39.417Z,99052.05
2018-12-15T23:00:10.437Z,99038.88
2018-12-15T23:02:38.745Z,99040.17
2018-12-15T23:05:10.813Z,99027.08
2018-12-15T23:07:39.413Z,99034.59
2018-12-15T23:10:08.571Z,99024.26
2018-12-15T23:12:36.900Z,99018.42
2018-12-15T23:15:11.420Z,99010.16
2018-12-15T23:17:39.754Z,99006.77
2018-12-15T23:20:08.721Z,98993.59
2018-12-15T23:22:37.060Z,98987.54
2018-12-15T23:25:05.685Z,98984.45
2018-12-15T23:27:33.992Z,98988.91
2018-12-15T23:30:02.549Z,98978.70
2018-12-15T23:32:30.874Z,98977.91
2018-12-15T23:34:59.403Z,98970.95
2018-12-15T23:37:27.808Z,98962.70
2018-12-15T23:39:56.224Z,98955.83
2018-12-15T23:42:24.621Z,98953.27
2018-12-15T23:44:52.948Z,98949.20
2018-12-15T23:47:21.491Z,98946.05
2018-12-15T23:49:49.869Z,98932.02
2018-12-15T23:52:23.233Z,98934.64
2018-12-15T23:54:48.574Z,98929.61
2018-12-15T23:57:16.922Z,98932.94
2018-12-15T23:59:45.322Z,98922.70
